createdAt,value
2022-10-17T00:01:19.090Z,58.83
2022-10-17T00:04:20.872Z,58.70
2022-10-17T00:07:22.967Z,58.89
2022-10-17T00:10:24.569Z,58.92
2022-10-17T00:13:26.800Z,58.97
2022-10-17T00:16:31.485Z,58.91
2022-10-17T00:19:33.233Z,58.93
2022-10-17T00:25:41.253Z,58.94
2022-10-17T00:28:43.382Z,58.91
2022-10-17T00:31:45.458Z,58.90
2022-10-17T00:34:47.082Z,58.96
2022-10-17T00:37:48.629Z,59.07
2022-10-17T00:40:50.205Z,59.03
2022-10-17T00:44:00.592Z,59.07
2022-10-17T00:47:06.296Z,59.06
2022-10-17T00:50:08.220Z,59.03
2022-10-17T00:53:10.853Z,59.26
2022-10-17T00:56:13.319Z,59.28
2022-10-17T00:59:17.996Z,59.17
2022-10-17T01:02:21.435Z,59.16
2022-10-17T01:05:23.218Z,59.26
2022-10-17T01:08:24.769Z,59.26
2022-10-17T01:11:42.391Z,59.24
2022-10-17T01:15:11.112Z,59.20
2022-10-17T01:18:41.908Z,59.37
2022-10-17T01:22:00.193Z,59.30
2022-10-17T01:25:23.700Z,59.30
2022-10-17T01:28:50.784Z,59.31
2022-10-17T01:32:05.479Z,59.37
2022-10-17T01:35:19.279Z,59.35
2022-10-17T01:38:27.539Z,59.36
2022-10-17T01:41:51.154Z,59.38
2022-10-17T01:45:07.399Z,59.46
2022-10-17T01:48:18.512Z,59.45
2022-10-17T01:51:33.982Z,59.50
2022-10-17T01:54:52.069Z,59.59
2022-10-17T01:57:59.379Z,59.57
2022-10-17T02:01:05.153Z,59.57
2022-10-17T02:04:09.041Z,59.62
2022-10-17T02:07:12.697Z,59.51
2022-10-17T02:10:27.743Z,59.42
2022-10-17T02:13:51.481Z,59.61
2022-10-17T02:17:11.856Z,59.61
2022-10-17T02:21:03.110Z,59.54
2022-10-17T02:24:18.605Z,59.53
2022-10-17T02:27:45.625Z,59.62
2022-10-17T02:31:06.393Z,59.68
2022-10-17T02:34:29.886Z,59.70
2022-10-17T02:37:32.728Z,59.70
2022-10-17T02:40:36.582Z,59.87
2022-10-17T02:43:39.368Z,59.59
2022-10-17T02:46:42.671Z,59.51
2022-10-17T02:49:50.517Z,59.82
2022-10-17T02:52:57.536Z,59.59
2022-10-17T02:56:04.824Z,59.81
2022-10-17T02:59:09.927Z,59.89
2022-10-17T03:02:11.744Z,59.62
2022-10-17T03:05:16.898Z,59.88
2022-10-17T03:08:19.392Z,59.72
2022-10-17T03:11:20.941Z,59.68
2022-10-17T03:14:22.433Z,59.76
2022-10-17T03:17:24.200Z,59.90
2022-10-17T03:20:25.737Z,59.80
2022-10-17T03:23:27.256Z,59.81
2022-10-17T03:26:29.657Z,59.95
2022-10-17T03:29:31.259Z,59.97
2022-10-17T03:32:35.622Z,60.02
2022-10-17T03:35:40.326Z,59.98
2022-10-17T03:38:42.792Z,60.07
2022-10-17T03:41:44.317Z,59.96
2022-10-17T03:44:45.829Z,60.01
2022-10-17T03:47:47.387Z,60.08
2022-10-17T03:50:49.077Z,60.00
2022-10-17T03:53:50.604Z,60.07
2022-10-17T03:56:52.281Z,60.03
2022-10-17T03:59:53.924Z,60.12
2022-10-17T04:02:55.461Z,60.10
2022-10-17T04:06:01.303Z,60.06
2022-10-17T04:09:03.591Z,60.08
2022-10-17T04:12:05.350Z,60.26
2022-10-17T04:15:07.648Z,60.15
2022-10-17T04:18:09.161Z,60.11
2022-10-17T04:21:11.414Z,60.28
2022-10-17T04:24:13.013Z,60.10
2022-10-17T04:27:14.821Z,60.16
2022-10-17T04:30:16.770Z,60.12
2022-10-17T04:33:18.300Z,60.30
2022-10-17T04:36:20.356Z,60.40
2022-10-17T04:39:21.902Z,60.38
2022-10-17T04:42:23.437Z,60.27
2022-10-17T04:45:25.041Z,60.58
2022-10-17T04:48:26.788Z,60.36
2022-10-17T04:51:28.347Z,60.36
2022-10-17T04:54:29.929Z,60.49
2022-10-17T04:57:35.516Z,60.37
2022-10-17T05:00:37.109Z,60.38
2022-10-17T05:03:39.373Z,60.49
2022-10-17T05:06:40.905Z,60.57
2022-10-17T05:09:42.458Z,60.59
2022-10-17T05:12:44.060Z,60.54
2022-10-17T05:15:45.793Z,60.93
2022-10-17T05:18:53.022Z,61.16
2022-10-17T05:21:54.864Z,60.81
2022-10-17T05:24:56.363Z,60.36
2022-10-17T05:27:57.939Z,60.38
2022-10-17T05:31:06.124Z,60.47
2022-10-17T05:34:09.134Z,60.43
2022-10-17T05:37:13.175Z,60.64
2022-10-17T05:40:14.821Z,60.59
2022-10-17T05:43:16.446Z,60.72
2022-10-17T05:46:18.029Z,60.72
2022-10-17T05:49:33.052Z,60.75
2022-10-17T05:52:42.905Z,60.90
2022-10-17T05:55:46.735Z,60.75
2022-10-17T05:58:50.599Z,60.89
2022-10-17T06:01:53.518Z,60.85
2022-10-17T06:04:55.122Z,60.92
2022-10-17T06:07:59.525Z,60.96
2022-10-17T06:11:06.141Z,60.88
2022-10-17T06:14:10.770Z,60.93
2022-10-17T06:17:16.006Z,60.95
2022-10-17T06:20:17.947Z,60.91
2022-10-17T06:23:19.696Z,61.05
2022-10-17T06:26:21.237Z,61.00
2022-10-17T06:29:22.827Z,61.00
2022-10-17T06:32:24.412Z,61.00
2022-10-17T06:35:25.980Z,61.00
2022-10-17T06:38:27.952Z,61.06
2022-10-17T06:41:29.529Z,60.89
2022-10-17T06:44:32.018Z,60.86
2022-10-17T06:47:34.147Z,60.78
2022-10-17T06:50:35.840Z,60.94
2022-10-17T06:53:39.089Z,61.05
2022-10-17T06:56:40.724Z,60.83
2022-10-17T06:59:42.213Z,60.89
2022-10-17T07:02:44.294Z,61.04
2022-10-17T07:05:52.233Z,60.87
2022-10-17T07:08:55.651Z,61.17
2022-10-17T07:11:57.410Z,60.85
2022-10-17T07:14:58.942Z,60.91
2022-10-17T07:18:00.496Z,60.86
2022-10-17T07:21:03.769Z,61.03
2022-10-17T07:24:07.181Z,61.19
2022-10-17T07:27:08.696Z,61.00
2022-10-17T07:30:10.995Z,61.28
2022-10-17T07:33:12.554Z,61.16
2022-10-17T07:36:14.810Z,61.16
2022-10-17T07:39:16.436Z,61.33
2022-10-17T07:42:18.045Z,61.15
2022-10-17T07:45:19.662Z,61.22
2022-10-17T07:48:23.099Z,61.21
2022-10-17T07:51:24.865Z,61.13
2022-10-17T07:54:26.490Z,61.09
2022-10-17T07:57:28.071Z,61.29
2022-10-17T08:00:29.596Z,61.01
2022-10-17T08:03:31.304Z,61.32
2022-10-17T08:06:32.861Z,61.29
2022-10-17T08:09:34.390Z,60.89
2022-10-17T08:12:35.925Z,61.01
2022-10-17T08:15:38.868Z,60.96
2022-10-17T08:18:42.144Z,61.02
2022-10-17T08:21:45.044Z,61.15
2022-10-17T08:24:46.658Z,61.03
2022-10-17T08:27:48.490Z,61.04
2022-10-17T08:30:50.118Z,61.16
2022-10-17T08:33:51.644Z,60.94
2022-10-17T08:36:53.140Z,61.21
2022-10-17T08:39:54.659Z,60.92
2022-10-17T08:43:13.212Z,60.74
2022-10-17T08:49:46.984Z,61.13
2022-10-17T08:52:54.712Z,60.77
2022-10-17T08:55:56.617Z,61.06
2022-10-17T08:58:58.771Z,60.85
2022-10-17T09:02:15.480Z,61.07
2022-10-17T09:05:35.702Z,60.89
2022-10-17T09:08:43.174Z,60.78
2022-10-17T09:12:17.393Z,60.96
2022-10-17T09:15:24.636Z,60.40
2022-10-17T09:18:33.338Z,60.82
2022-10-17T09:21:53.610Z,60.75
2022-10-17T09:24:59.374Z,60.88
2022-10-17T09:28:12.760Z,60.80
2022-10-17T09:31:26.815Z,60.80
2022-10-17T09:34:31.481Z,60.63
2022-10-17T09:37:33.368Z,60.77
2022-10-17T09:40:36.562Z,60.52
2022-10-17T09:43:39.665Z,60.54
2022-10-17T09:46:46.823Z,60.58
2022-10-17T09:49:49.389Z,60.68
2022-10-17T09:52:52.114Z,60.59
2022-10-17T09:55:58.934Z,60.63
2022-10-17T09:59:00.573Z,60.59
2022-10-17T10:02:30.043Z,60.91
2022-10-17T10:05:31.680Z,60.68
2022-10-17T10:08:51.345Z,60.54
2022-10-17T10:11:56.524Z,60.66
2022-10-17T10:14:58.271Z,60.60
2022-10-17T10:17:59.896Z,60.61
2022-10-17T10:21:04.303Z,60.65
2022-10-17T10:24:08.856Z,60.54
2022-10-17T10:27:16.289Z,60.29
2022-10-17T10:30:25.508Z,60.36
2022-10-17T10:33:30.041Z,60.45
2022-10-17T10:37:13.429Z,60.23
2022-10-17T10:40:16.309Z,60.59
2022-10-17T10:43:23.321Z,60.45
2022-10-17T10:46:28.753Z,60.66
2022-10-17T10:49:32.238Z,60.28
2022-10-17T10:53:15.147Z,60.53
2022-10-17T10:56:41.468Z,60.15
2022-10-17T10:59:56.653Z,60.20
2022-10-17T11:03:20.991Z,60.44
2022-10-17T11:06:31.572Z,60.49
2022-10-17T11:09:38.770Z,60.16
2022-10-17T11:12:49.486Z,60.23
2022-10-17T11:16:01.859Z,60.15
2022-10-17T11:19:22.336Z,60.53
2022-10-17T11:22:31.067Z,60.30
2022-10-17T11:25:38.114Z,60.19
2022-10-17T11:28:39.784Z,60.05
2022-10-17T11:31:47.361Z,59.99
2022-10-17T11:34:54.785Z,60.34
2022-10-17T11:38:14.299Z,60.31
2022-10-17T11:41:23.083Z,60.09
2022-10-17T11:44:26.800Z,60.17
2022-10-17T11:47:34.395Z,60.41
2022-10-17T11:54:09.029Z,60.41
2022-10-17T11:57:16.400Z,60.46
2022-10-17T12:00:41.731Z,60.40
2022-10-17T12:03:53.437Z,60.30
2022-10-17T12:07:16.972Z,60.40
2022-10-17T12:10:18.438Z,60.42
2022-10-17T12:13:29.195Z,60.47
2022-10-17T12:16:43.391Z,60.32
2022-10-17T12:19:44.993Z,60.65
2022-10-17T12:22:51.663Z,60.68
2022-10-17T12:25:57.052Z,60.55
2022-10-17T12:29:01.379Z,60.78
2022-10-17T12:32:13.168Z,60.77
2022-10-17T12:35:22.097Z,60.87
2022-10-17T12:38:26.383Z,60.93
2022-10-17T12:41:39.763Z,60.75
2022-10-17T12:44:41.810Z,60.78
2022-10-17T12:47:43.417Z,60.94
2022-10-17T12:51:35.234Z,60.85
2022-10-17T12:54:37.990Z,61.05
2022-10-17T12:58:01.659Z,61.09
2022-10-17T13:01:23.197Z,60.94
2022-10-17T13:04:28.534Z,60.93
2022-10-17T13:07:30.643Z,61.09
2022-10-17T13:10:39.669Z,60.80
2022-10-17T13:13:48.736Z,61.17
2022-10-17T13:16:56.496Z,61.08
2022-10-17T13:19:58.587Z,60.97
2022-10-17T13:23:00.314Z,60.87
2022-10-17T13:26:07.884Z,60.97
2022-10-17T13:29:14.685Z,61.21
2022-10-17T13:32:16.621Z,61.20
2022-10-17T13:35:55.303Z,60.89
2022-10-17T13:38:51.851Z,60.95
2022-10-17T13:41:55.847Z,60.86
2022-10-17T13:44:58.464Z,60.77
2022-10-17T13:48:17.573Z,60.97
2022-10-17T13:51:19.704Z,61.17
2022-10-17T13:54:41.166Z,61.20
2022-10-17T13:57:42.727Z,61.24
2022-10-17T14:00:45.972Z,61.36
2022-10-17T14:03:51.763Z,61.25
2022-10-17T14:06:58.775Z,61.25
2022-10-17T14:10:00.386Z,61.39
2022-10-17T14:13:04.387Z,61.11
2022-10-17T14:16:08.565Z,61.46
2022-10-17T14:19:25.081Z,61.29
2022-10-17T14:22:28.517Z,61.11
2022-10-17T14:25:35.680Z,61.23
2022-10-17T14:28:39.125Z,61.47
2022-10-17T14:31:40.848Z,61.41
2022-10-17T14:34:42.444Z,61.33
2022-10-17T14:37:49.449Z,61.50
2022-10-17T14:41:40.954Z,61.61
2022-10-17T14:44:33.070Z,61.38
2022-10-17T14:47:44.033Z,61.55
2022-10-17T14:51:24.523Z,61.56
2022-10-17T14:54:29.134Z,61.34
2022-10-17T14:57:33.495Z,61.24
2022-10-17T15:00:35.017Z,61.43
2022-10-17T15:03:36.652Z,61.34
2022-10-17T15:06:38.300Z,61.37
2022-10-17T15:09:39.866Z,61.57
2022-10-17T15:12:51.010Z,61.56
2022-10-17T15:16:00.516Z,61.60
2022-10-17T15:19:02.112Z,61.57
2022-10-17T15:22:03.688Z,61.62
2022-10-17T15:25:05.733Z,61.66
2022-10-17T15:28:07.992Z,61.64
2022-10-17T15:31:15.101Z,61.77
2022-10-17T15:34:16.646Z,61.79
2022-10-17T15:37:23.465Z,61.68
2022-10-17T15:40:30.799Z,61.70
2022-10-17T15:43:32.303Z,61.73
2022-10-17T15:46:35.540Z,61.74
2022-10-17T15:49:37.069Z,61.89
2022-10-17T15:52:38.636Z,61.59
2022-10-17T15:55:40.768Z,61.70
2022-10-17T15:58:42.315Z,61.76
2022-10-17T16:01:44.476Z,61.82
2022-10-17T16:04:47.315Z,61.91
2022-10-17T16:07:49.777Z,61.82
2022-10-17T16:10:52.034Z,61.89
2022-10-17T16:13:55.885Z,61.98
2022-10-17T16:16:57.445Z,61.92
2022-10-17T16:19:58.984Z,61.91
2022-10-17T16:23:03.000Z,62.08
2022-10-17T16:26:04.609Z,61.98
2022-10-17T16:29:06.339Z,61.89
2022-10-17T16:32:10.114Z,61.96
2022-10-17T16:35:16.990Z,62.05
2022-10-17T16:38:18.745Z,62.15
2022-10-17T16:41:31.785Z,61.98
2022-10-17T16:44:33.340Z,61.91
2022-10-17T16:47:34.897Z,62.14
2022-10-17T16:50:39.436Z,62.15
2022-10-17T16:53:44.530Z,61.80
2022-10-17T16:56:46.122Z,61.89
2022-10-17T16:59:47.620Z,62.01
2022-10-17T17:02:49.181Z,62.09
2022-10-17T17:05:52.036Z,62.12
2022-10-17T17:08:54.715Z,62.04
2022-10-17T17:11:56.239Z,61.97
2022-10-17T17:14:57.788Z,62.01
2022-10-17T17:18:04.095Z,61.99
2022-10-17T17:21:09.282Z,61.94
2022-10-17T17:24:10.813Z,61.91
2022-10-17T17:27:13.542Z,61.97
2022-10-17T17:30:15.715Z,61.92
2022-10-17T17:33:17.343Z,61.89
2022-10-17T17:36:22.001Z,61.78
2022-10-17T17:39:23.546Z,61.66
2022-10-17T17:42:25.306Z,61.98
2022-10-17T17:45:27.340Z,61.79
2022-10-17T17:48:28.959Z,61.85
2022-10-17T17:51:30.530Z,61.72
2022-10-17T17:54:32.098Z,61.85
2022-10-17T17:57:33.612Z,61.73
2022-10-17T18:00:36.230Z,61.59
2022-10-17T18:03:40.982Z,61.71
2022-10-17T18:06:42.586Z,61.70
2022-10-17T18:09:44.128Z,61.74
2022-10-17T18:12:45.668Z,61.50
2022-10-17T18:15:48.845Z,61.50
2022-10-17T18:18:50.539Z,61.47
2022-10-17T18:21:52.422Z,61.44
2022-10-17T18:24:54.042Z,61.39
2022-10-17T18:27:55.572Z,61.69
2022-10-17T18:31:00.917Z,61.54
2022-10-17T18:34:04.288Z,61.45
2022-10-17T18:37:06.000Z,61.52
2022-10-17T18:40:08.105Z,61.46
2022-10-17T18:43:09.652Z,61.46
2022-10-17T18:46:20.085Z,61.66
2022-10-17T18:49:25.636Z,61.41
2022-10-17T18:52:27.193Z,61.58
2022-10-17T18:55:28.788Z,61.51
2022-10-17T18:58:30.385Z,61.63
2022-10-17T19:01:32.016Z,61.52
2022-10-17T19:04:33.598Z,61.55
2022-10-17T19:07:35.113Z,61.45
2022-10-17T19:10:37.697Z,61.46
2022-10-17T19:13:39.932Z,61.54
2022-10-17T19:16:45.079Z,61.32
2022-10-17T19:19:50.135Z,61.41
2022-10-17T19:25:54.957Z,61.52
2022-10-17T19:29:00.542Z,61.48
2022-10-17T19:32:02.705Z,61.56
2022-10-17T19:35:05.501Z,61.56
2022-10-17T19:38:06.985Z,61.47
2022-10-17T19:41:11.384Z,61.59
2022-10-17T19:44:13.613Z,61.58
2022-10-17T19:47:15.173Z,61.47
2022-10-17T19:50:16.754Z,61.64
2022-10-17T19:53:18.903Z,61.44
2022-10-17T19:56:22.008Z,61.47
2022-10-17T20:02:30.258Z,61.52
2022-10-17T20:05:31.975Z,61.62
2022-10-17T20:08:33.819Z,61.67
2022-10-17T20:11:35.431Z,61.60
2022-10-17T20:14:40.878Z,61.53
2022-10-17T20:17:42.728Z,61.64
2022-10-17T20:20:44.295Z,61.53
2022-10-17T20:23:47.880Z,61.71
2022-10-17T20:26:49.526Z,61.52
2022-10-17T20:29:51.071Z,61.52
2022-10-17T20:32:55.036Z,61.47
2022-10-17T20:35:57.018Z,61.55
2022-10-17T20:38:59.340Z,61.53
2022-10-17T20:42:00.909Z,61.68
2022-10-17T20:45:02.571Z,61.52
2022-10-17T20:48:05.331Z,61.49
2022-10-17T20:51:10.808Z,61.54
2022-10-17T20:54:12.872Z,61.70
2022-10-17T20:57:14.440Z,61.58
2022-10-17T21:00:15.953Z,61.51
2022-10-17T21:03:17.549Z,61.50
2022-10-17T21:06:19.658Z,61.48
2022-10-17T21:09:21.860Z,61.49
2022-10-17T21:12:31.454Z,61.53
2022-10-17T21:15:44.528Z,61.39
2022-10-17T21:18:46.585Z,61.46
2022-10-17T21:21:48.387Z,61.71
2022-10-17T21:24:49.900Z,61.65
2022-10-17T21:27:54.371Z,61.57
2022-10-17T21:30:55.919Z,61.70
2022-10-17T21:33:59.770Z,61.77
2022-10-17T21:37:01.297Z,61.79
2022-10-17T21:40:02.970Z,61.66
2022-10-17T21:43:04.492Z,61.94
2022-10-17T21:46:15.053Z,61.66
2022-10-17T21:49:19.654Z,61.59
2022-10-17T21:52:21.185Z,61.60
2022-10-17T21:55:22.735Z,61.87
2022-10-17T21:58:24.271Z,61.60
2022-10-17T22:01:31.447Z,61.66
2022-10-17T22:04:33.025Z,61.54
2022-10-17T22:07:34.577Z,61.78
2022-10-17T22:10:37.965Z,61.43
2022-10-17T22:13:40.060Z,61.63
2022-10-17T22:16:42.070Z,61.56
2022-10-17T22:19:43.632Z,61.48
2022-10-17T22:22:45.199Z,61.61
2022-10-17T22:25:57.800Z,61.25
2022-10-17T22:28:59.784Z,61.52
2022-10-17T22:32:01.347Z,61.70
2022-10-17T22:35:02.927Z,61.95
2022-10-17T22:38:04.501Z,61.86
2022-10-17T22:41:06.371Z,62.03
2022-10-17T22:44:08.280Z,62.11
2022-10-17T22:47:09.803Z,61.84
2022-10-17T22:50:11.328Z,62.08
2022-10-17T22:53:12.867Z,62.14
2022-10-17T22:56:16.606Z,61.96
2022-10-17T22:59:18.188Z,61.90
2022-10-17T23:02:19.999Z,62.23
2022-10-17T23:05:21.627Z,62.19
2022-10-17T23:08:23.632Z,62.43
2022-10-17T23:11:25.437Z,62.00
2022-10-17T23:14:26.961Z,62.49
2022-10-17T23:17:28.524Z,62.19
2022-10-17T23:20:31.111Z,62.12
2022-10-17T23:23:32.791Z,62.40
2022-10-17T23:26:34.359Z,62.49
2022-10-17T23:29:35.963Z,62.55
2022-10-17T23:32:38.898Z,62.32
2022-10-17T23:35:41.064Z,62.36
2022-10-17T23:38:43.973Z,62.58
2022-10-17T23:41:45.570Z,62.36
2022-10-17T23:44:47.095Z,62.59
2022-10-17T23:47:48.633Z,62.33
2022-10-17T23:50:50.181Z,62.46
2022-10-17T23:53:51.703Z,62.74
2022-10-17T23:56:53.244Z,62.47
2022-10-17T23:59:55.421Z,62.45
